sensor_id;sensor_type;location;lat;lon;timestamp;temperature;humidity
76172;DHT22;64929;51.178;4.138;2024-01-15T00:01:17;4.20;99.90
76172;DHT22;64929;51.178;4.138;2024-01-15T00:03:43;4.10;99.90
76172;DHT22;64929;51.178;4.138;2024-01-15T00:06:08;4.20;99.90
76172;DHT22;64929;51.178;4.138;2024-01-15T00:08:34;4.20;99.90
76172;DHT22;64929;51.178;4.138;2024-01-15T00:11:00;4.20;99.90
76172;DHT22;64929;51.178;4.138;2024-01-15T00:13:25;4.20;99.90
76172;DHT22;64929;51.178;4.138;2024-01-15T00:15:51;4.10;99.90
76172;DHT22;64929;51.178;4.138;2024-01-15T00:18:17;4.30;99.90
76172;DHT22;64929;51.178;4.138;2024-01-15T00:20:42;4.40;99.90
76172;DHT22;64929;51.178;4.138;2024-01-15T00:23:08;4.30;99.90
76172;DHT22;64929;51.178;4.138;2024-01-15T00:25:34;4.50;99.90
76172;DHT22;64929;51.178;4.138;2024-01-15T00:28:00;4.40;99.90
76172;DHT22;64929;51.178;4.138;2024-01-15T00:30:25;4.50;99.90
76172;DHT22;64929;51.178;4.138;2024-01-15T00:32:52;4.40;99.90
76172;DHT22;64929;51.178;4.138;2024-01-15T00:35:17;4.40;99.90
76172;DHT22;64929;51.178;4.138;2024-01-15T00:37:43;4.60;99.90
76172;DHT22;64929;51.178;4.138;2024-01-15T00:40:09;4.60;99.90
76172;DHT22;64929;51.178;4.138;2024-01-15T00:42:35;4.60;99.90
76172;DHT22;64929;51.178;4.138;2024-01-15T00:45:00;4.70;99.90
76172;DHT22;64929;51.178;4.138;2024-01-15T00:47:26;4.60;99.90
76172;DHT22;64929;51.178;4.138;2024-01-15T00:49:52;4.60;99.90
76172;DHT22;64929;51.178;4.138;2024-01-15T00:52:17;4.70;99.90
76172;DHT22;64929;51.178;4.138;2024-01-15T00:54:44;4.70;99.90
76172;DHT22;64929;51.178;4.138;2024-01-15T00:57:10;4.50;99.90
76172;DHT22;64929;51.178;4.138;2024-01-15T00:59:35;4.60;99.90
76172;DHT22;64929;51.178;4.138;2024-01-15T01:02:01;4.60;99.90
76172;DHT22;64929;51.178;4.138;2024-01-15T01:04:27;4.60;99.90
76172;DHT22;64929;51.178;4.138;2024-01-15T01:06:53;4.70;99.90
76172;DHT22;64929;51.178;4.138;2024-01-15T01:09:19;4.50;99.90
76172;DHT22;64929;51.178;4.138;2024-01-15T01:11:44;4.50;99.90
76172;DHT22;64929;51.178;4.138;2024-01-15T01:14:10;4.50;99.90
76172;DHT22;64929;51.178;4.138;2024-01-15T01:16:36;4.70;99.90
76172;DHT22;64929;51.178;4.138;2024-01-15T01:19:05;4.70;99.90
76172;DHT22;64929;51.178;4.138;2024-01-15T01:21:31;4.60;99.90
76172;DHT22;64929;51.178;4.138;2024-01-15T01:23:57;4.70;99.90
76172;DHT22;64929;51.178;4.138;2024-01-15T01:26:23;4.70;99.90
76172;DHT22;64929;51.178;4.138;2024-01-15T01:28:48;4.80;99.90
76172;DHT22;64929;51.178;4.138;2024-01-15T01:31:14;4.90;99.90
76172;DHT22;64929;51.178;4.138;2024-01-15T01:33:42;4.80;99.90
76172;DHT22;64929;51.178;4.138;2024-01-15T01:36:10;4.60;99.90
76172;DHT22;64929;51.178;4.138;2024-01-15T01:38:36;4.60;99.90
76172;DHT22;64929;51.178;4.138;2024-01-15T01:41:02;4.40;99.90
76172;DHT22;64929;51.178;4.138;2024-01-15T01:43:28;4.40;99.90
76172;DHT22;64929;51.178;4.138;2024-01-15T01:45:57;4.40;99.90
76172;DHT22;64929;51.178;4.138;2024-01-15T01:48:24;4.30;99.90
76172;DHT22;64929;51.178;4.138;2024-01-15T01:50:56;4.30;99.90
76172;DHT22;64929;51.178;4.138;2024-01-15T01:53:23;4.60;99.90
76172;DHT22;64929;51.178;4.138;2024-01-15T01:55:50;4.60;99.90
76172;DHT22;64929;51.178;4.138;2024-01-15T01:58:16;4.60;99.90
76172;DHT22;64929;51.178;4.138;2024-01-15T02:00:43;4.40;99.90
76172;DHT22;64929;51.178;4.138;2024-01-15T02:03:09;4.60;99.90
76172;DHT22;64929;51.178;4.138;2024-01-15T02:05:35;4.70;99.90
76172;DHT22;64929;51.178;4.138;2024-01-15T02:08:01;4.70;99.90
76172;DHT22;64929;51.178;4.138;2024-01-15T02:10:27;4.70;99.90
76172;DHT22;64929;51.178;4.138;2024-01-15T02:12:53;4.70;99.90
76172;DHT22;64929;51.178;4.138;2024-01-15T02:15:18;4.60;99.90
76172;DHT22;64929;51.178;4.138;2024-01-15T02:18:01;4.60;99.90
76172;DHT22;64929;51.178;4.138;2024-01-15T02:20:28;4.50;99.90
76172;DHT22;64929;51.178;4.138;2024-01-15T02:22:54;4.40;99.90
76172;DHT22;64929;51.178;4.138;2024-01-15T02:25:20;4.50;99.90
76172;DHT22;64929;51.178;4.138;2024-01-15T02:27:46;4.50;99.90
76172;DHT22;64929;51.178;4.138;2024-01-15T02:30:12;4.60;99.90
76172;DHT22;64929;51.178;4.138;2024-01-15T02:32:39;4.70;99.90
76172;DHT22;64929;51.178;4.138;2024-01-15T02:35:04;4.60;99.90
76172;DHT22;64929;51.178;4.138;2024-01-15T02:37:30;4.70;99.90
76172;DHT22;64929;51.178;4.138;2024-01-15T02:39:56;4.50;99.90
76172;DHT22;64929;51.178;4.138;2024-01-15T02:42:21;4.60;99.90
76172;DHT22;64929;51.178;4.138;2024-01-15T02:44:47;4.70;99.90
76172;DHT22;64929;51.178;4.138;2024-01-15T02:47:14;4.70;99.90
76172;DHT22;64929;51.178;4.138;2024-01-15T02:49:40;4.80;99.90
76172;DHT22;64929;51.178;4.138;2024-01-15T02:52:06;4.80;99.90
76172;DHT22;64929;51.178;4.138;2024-01-15T02:54:31;4.70;99.90
76172;DHT22;64929;51.178;4.138;2024-01-15T02:56:57;4.60;99.90
76172;DHT22;64929;51.178;4.138;2024-01-15T02:59:23;4.80;99.90
76172;DHT22;64929;51.178;4.138;2024-01-15T03:01:48;4.70;99.90
76172;DHT22;64929;51.178;4.138;2024-01-15T03:04:14;4.50;99.90
76172;DHT22;64929;51.178;4.138;2024-01-15T03:06:40;4.50;99.90
76172;DHT22;64929;51.178;4.138;2024-01-15T03:09:05;4.70;99.90
76172;DHT22;64929;51.178;4.138;2024-01-15T03:11:40;4.60;99.90
76172;DHT22;64929;51.178;4.138;2024-01-15T03:14:05;4.60;99.90
76172;DHT22;64929;51.178;4.138;2024-01-15T03:16:31;4.70;99.90
76172;DHT22;64929;51.178;4.138;2024-01-15T03:18:57;4.60;99.90
76172;DHT22;64929;51.178;4.138;2024-01-15T03:21:22;4.50;99.90
76172;DHT22;64929;51.178;4.138;2024-01-15T03:23:48;4.40;99.90
76172;DHT22;64929;51.178;4.138;2024-01-15T03:26:14;4.40;99.90
76172;DHT22;64929;51.178;4.138;2024-01-15T03:28:39;4.40;99.90
76172;DHT22;64929;51.178;4.138;2024-01-15T03:31:05;4.30;99.90
76172;DHT22;64929;51.178;4.138;2024-01-15T03:33:31;4.30;99.90
76172;DHT22;64929;51.178;4.138;2024-01-15T03:35:56;4.40;99.90
76172;DHT22;64929;51.178;4.138;2024-01-15T03:38:23;4.40;99.90
76172;DHT22;64929;51.178;4.138;2024-01-15T03:40:48;4.30;99.90
76172;DHT22;64929;51.178;4.138;2024-01-15T03:43:14;4.30;99.90
76172;DHT22;64929;51.178;4.138;2024-01-15T03:45:40;4.30;99.90
76172;DHT22;64929;51.178;4.138;2024-01-15T03:48:06;4.30;99.90
76172;DHT22;64929;51.178;4.138;2024-01-15T03:50:31;4.20;99.90
76172;DHT22;64929;51.178;4.138;2024-01-15T03:52:57;4.10;99.90
76172;DHT22;64929;51.178;4.138;2024-01-15T03:55:23;4.00;99.90
76172;DHT22;64929;51.178;4.138;2024-01-15T03:57:48;3.90;99.90
76172;DHT22;64929;51.178;4.138;2024-01-15T04:00:14;3.80;99.90
76172;DHT22;64929;51.178;4.138;2024-01-15T04:02:43;3.70;99.90
76172;DHT22;64929;51.178;4.138;2024-01-15T04:05:09;3.70;99.90
76172;DHT22;64929;51.178;4.138;2024-01-15T04:07:35;3.50;99.90
76172;DHT22;64929;51.178;4.138;2024-01-15T04:10:01;3.50;99.90
76172;DHT22;64929;51.178;4.138;2024-01-15T04:12:26;3.50;99.90
76172;DHT22;64929;51.178;4.138;2024-01-15T04:14:52;3.50;99.90
76172;DHT22;64929;51.178;4.138;2024-01-15T04:17:18;3.50;99.90
76172;DHT22;64929;51.178;4.138;2024-01-15T04:19:44;3.60;99.90
76172;DHT22;64929;51.178;4.138;2024-01-15T04:22:10;3.70;99.90
76172;DHT22;64929;51.178;4.138;2024-01-15T04:24:35;3.60;99.90
76172;DHT22;64929;51.178;4.138;2024-01-15T04:27:01;3.60;99.90
76172;DHT22;64929;51.178;4.138;2024-01-15T04:29:27;3.50;99.90
76172;DHT22;64929;51.178;4.138;2024-01-15T04:31:53;3.50;99.90
76172;DHT22;64929;51.178;4.138;2024-01-15T04:34:19;3.40;99.90
76172;DHT22;64929;51.178;4.138;2024-01-15T04:36:44;3.30;99.90
76172;DHT22;64929;51.178;4.138;2024-01-15T04:39:10;3.20;99.90
76172;DHT22;64929;51.178;4.138;2024-01-15T04:41:37;3.20;99.90
76172;DHT22;64929;51.178;4.138;2024-01-15T04:44:03;3.20;99.90
76172;DHT22;64929;51.178;4.138;2024-01-15T04:46:28;3.10;99.90
76172;DHT22;64929;51.178;4.138;2024-01-15T04:48:54;3.00;99.90
76172;DHT22;64929;51.178;4.138;2024-01-15T04:51:20;3.10;99.90
76172;DHT22;64929;51.178;4.138;2024-01-15T04:53:46;3.00;99.90
76172;DHT22;64929;51.178;4.138;2024-01-15T04:56:11;2.90;99.90
76172;DHT22;64929;51.178;4.138;2024-01-15T04:58:37;3.00;99.90
76172;DHT22;64929;51.178;4.138;2024-01-15T05:01:02;3.00;99.90
76172;DHT22;64929;51.178;4.138;2024-01-15T05:03:29;3.00;99.90
76172;DHT22;64929;51.178;4.138;2024-01-15T05:05:55;3.10;99.90
76172;DHT22;64929;51.178;4.138;2024-01-15T05:08:21;3.00;99.90
76172;DHT22;64929;51.178;4.138;2024-01-15T05:10:47;3.00;99.90
76172;DHT22;64929;51.178;4.138;2024-01-15T05:13:13;3.00;99.90
76172;DHT22;64929;51.178;4.138;2024-01-15T05:15:39;3.00;99.90
76172;DHT22;64929;51.178;4.138;2024-01-15T05:18:04;3.00;99.90
76172;DHT22;64929;51.178;4.138;2024-01-15T05:20:30;3.10;99.90
76172;DHT22;64929;51.178;4.138;2024-01-15T05:22:56;3.20;99.90
76172;DHT22;64929;51.178;4.138;2024-01-15T05:25:22;3.30;99.90
76172;DHT22;64929;51.178;4.138;2024-01-15T05:27:48;3.40;99.90
76172;DHT22;64929;51.178;4.138;2024-01-15T05:30:14;3.30;99.90
76172;DHT22;64929;51.178;4.138;2024-01-15T05:32:40;3.40;99.90
76172;DHT22;64929;51.178;4.138;2024-01-15T05:35:06;3.30;99.90
76172;DHT22;64929;51.178;4.138;2024-01-15T05:37:31;3.30;99.90
76172;DHT22;64929;51.178;4.138;2024-01-15T05:39:57;3.10;99.90
76172;DHT22;64929;51.178;4.138;2024-01-15T05:42:23;3.00;99.90
76172;DHT22;64929;51.178;4.138;2024-01-15T05:44:48;3.00;99.90
76172;DHT22;64929;51.178;4.138;2024-01-15T05:47:14;2.90;99.90
76172;DHT22;64929;51.178;4.138;2024-01-15T05:49:40;2.90;99.90
76172;DHT22;64929;51.178;4.138;2024-01-15T05:52:06;3.10;99.90
76172;DHT22;64929;51.178;4.138;2024-01-15T05:54:32;3.10;99.90
76172;DHT22;64929;51.178;4.138;2024-01-15T05:56:57;3.20;99.90
76172;DHT22;64929;51.178;4.138;2024-01-15T05:59:23;3.20;99.90
76172;DHT22;64929;51.178;4.138;2024-01-15T06:01:49;3.20;99.90
76172;DHT22;64929;51.178;4.138;2024-01-15T06:04:14;3.30;99.90
76172;DHT22;64929;51.178;4.138;2024-01-15T06:06:40;3.50;99.90
76172;DHT22;64929;51.178;4.138;2024-01-15T06:09:06;3.60;99.90
76172;DHT22;64929;51.178;4.138;2024-01-15T06:11:32;3.60;99.90
76172;DHT22;64929;51.178;4.138;2024-01-15T06:13:58;3.60;99.90
76172;DHT22;64929;51.178;4.138;2024-01-15T06:16:24;3.50;99.90
76172;DHT22;64929;51.178;4.138;2024-01-15T06:18:50;3.40;99.90
76172;DHT22;64929;51.178;4.138;2024-01-15T06:21:16;3.40;99.90
76172;DHT22;64929;51.178;4.138;2024-01-15T06:23:42;3.30;99.90
76172;DHT22;64929;51.178;4.138;2024-01-15T06:26:07;3.40;99.90
76172;DHT22;64929;51.178;4.138;2024-01-15T06:28:33;3.50;99.90
76172;DHT22;64929;51.178;4.138;2024-01-15T06:30:59;3.50;99.90
76172;DHT22;64929;51.178;4.138;2024-01-15T06:33:24;3.50;99.90
76172;DHT22;64929;51.178;4.138;2024-01-15T06:35:50;3.50;99.90
76172;DHT22;64929;51.178;4.138;2024-01-15T06:38:16;3.70;99.90
76172;DHT22;64929;51.178;4.138;2024-01-15T06:40:42;4.00;99.90
76172;DHT22;64929;51.178;4.138;2024-01-15T06:43:14;3.80;99.90
76172;DHT22;64929;51.178;4.138;2024-01-15T06:45:40;3.90;99.90
76172;DHT22;64929;51.178;4.138;2024-01-15T06:48:06;4.00;99.90
76172;DHT22;64929;51.178;4.138;2024-01-15T06:50:33;4.00;99.90
76172;DHT22;64929;51.178;4.138;2024-01-15T06:52:58;4.00;99.90
76172;DHT22;64929;51.178;4.138;2024-01-15T06:55:24;3.90;99.90
76172;DHT22;64929;51.178;4.138;2024-01-15T06:57:51;3.90;99.90
76172;DHT22;64929;51.178;4.138;2024-01-15T07:00:17;4.00;99.90
76172;DHT22;64929;51.178;4.138;2024-01-15T07:02:43;3.90;99.90
76172;DHT22;64929;51.178;4.138;2024-01-15T07:05:09;3.90;99.90
76172;DHT22;64929;51.178;4.138;2024-01-15T07:07:35;4.00;99.90
76172;DHT22;64929;51.178;4.138;2024-01-15T07:10:01;4.00;99.90
76172;DHT22;64929;51.178;4.138;2024-01-15T07:12:27;4.00;99.90
76172;DHT22;64929;51.178;4.138;2024-01-15T07:14:54;4.10;99.90
76172;DHT22;64929;51.178;4.138;2024-01-15T07:17:20;4.30;99.90
76172;DHT22;64929;51.178;4.138;2024-01-15T07:19:46;4.20;99.90
76172;DHT22;64929;51.178;4.138;2024-01-15T07:22:12;4.10;99.90
76172;DHT22;64929;51.178;4.138;2024-01-15T07:24:37;4.10;99.90
76172;DHT22;64929;51.178;4.138;2024-01-15T07:27:04;3.90;99.90
76172;DHT22;64929;51.178;4.138;2024-01-15T07:29:30;4.10;99.90
76172;DHT22;64929;51.178;4.138;2024-01-15T07:31:58;4.10;99.90
76172;DHT22;64929;51.178;4.138;2024-01-15T07:34:24;4.10;99.90
76172;DHT22;64929;51.178;4.138;2024-01-15T07:36:50;4.00;99.90
76172;DHT22;64929;51.178;4.138;2024-01-15T07:39:15;4.00;99.90
76172;DHT22;64929;51.178;4.138;2024-01-15T07:41:41;4.00;99.90
76172;DHT22;64929;51.178;4.138;2024-01-15T07:44:07;3.90;99.90
76172;DHT22;64929;51.178;4.138;2024-01-15T07:46:33;4.00;99.90
76172;DHT22;64929;51.178;4.138;2024-01-15T07:48:58;4.10;99.90
76172;DHT22;64929;51.178;4.138;2024-01-15T07:51:25;4.10;99.90
76172;DHT22;64929;51.178;4.138;2024-01-15T07:53:53;4.20;99.90
76172;DHT22;64929;51.178;4.138;2024-01-15T07:56:19;4.10;99.90
76172;DHT22;64929;51.178;4.138;2024-01-15T07:58:46;4.10;99.90
76172;DHT22;64929;51.178;4.138;2024-01-15T08:01:12;4.20;99.90
76172;DHT22;64929;51.178;4.138;2024-01-15T08:03:38;4.30;99.90
76172;DHT22;64929;51.178;4.138;2024-01-15T08:06:05;4.30;99.90
76172;DHT22;64929;51.178;4.138;2024-01-15T08:08:31;4.30;99.90
76172;DHT22;64929;51.178;4.138;2024-01-15T08:10:57;4.20;99.90
76172;DHT22;64929;51.178;4.138;2024-01-15T08:13:22;4.20;99.90
76172;DHT22;64929;51.178;4.138;2024-01-15T08:15:48;4.10;99.90
76172;DHT22;64929;51.178;4.138;2024-01-15T08:18:16;4.00;99.90
76172;DHT22;64929;51.178;4.138;2024-01-15T08:20:42;4.30;99.90
76172;DHT22;64929;51.178;4.138;2024-01-15T08:23:08;4.10;99.90
76172;DHT22;64929;51.178;4.138;2024-01-15T08:25:34;4.10;99.90
76172;DHT22;64929;51.178;4.138;2024-01-15T08:27:59;4.20;99.90
76172;DHT22;64929;51.178;4.138;2024-01-15T08:30:25;4.00;99.90
76172;DHT22;64929;51.178;4.138;2024-01-15T08:32:53;4.00;99.90
76172;DHT22;64929;51.178;4.138;2024-01-15T08:35:19;4.30;99.90
76172;DHT22;64929;51.178;4.138;2024-01-15T08:37:53;4.10;99.90
76172;DHT22;64929;51.178;4.138;2024-01-15T08:40:19;4.10;99.90
76172;DHT22;64929;51.178;4.138;2024-01-15T08:42:45;4.00;99.90
76172;DHT22;64929;51.178;4.138;2024-01-15T08:45:11;4.00;99.90
76172;DHT22;64929;51.178;4.138;2024-01-15T08:47:37;4.10;99.90
76172;DHT22;64929;51.178;4.138;2024-01-15T08:50:06;4.30;99.90
76172;DHT22;64929;51.178;4.138;2024-01-15T08:52:35;4.10;99.90
76172;DHT22;64929;51.178;4.138;2024-01-15T08:55:00;4.20;99.90
76172;DHT22;64929;51.178;4.138;2024-01-15T08:57:26;4.20;99.90
76172;DHT22;64929;51.178;4.138;2024-01-15T08:59:52;4.10;99.90
76172;DHT22;64929;51.178;4.138;2024-01-15T09:02:17;4.30;99.90
76172;DHT22;64929;51.178;4.138;2024-01-15T09:04:43;4.20;99.90
76172;DHT22;64929;51.178;4.138;2024-01-15T09:07:09;4.40;99.90
76172;DHT22;64929;51.178;4.138;2024-01-15T09:09:35;4.50;99.90
76172;DHT22;64929;51.178;4.138;2024-01-15T09:12:02;4.80;99.90
76172;DHT22;64929;51.178;4.138;2024-01-15T09:14:27;4.80;99.90
76172;DHT22;64929;51.178;4.138;2024-01-15T09:16:54;4.90;99.90
76172;DHT22;64929;51.178;4.138;2024-01-15T09:19:20;4.90;99.90
76172;DHT22;64929;51.178;4.138;2024-01-15T09:21:45;4.90;99.90
76172;DHT22;64929;51.178;4.138;2024-01-15T09:24:11;4.70;99.90
76172;DHT22;64929;51.178;4.138;2024-01-15T09:26:37;4.80;99.90
76172;DHT22;64929;51.178;4.138;2024-01-15T09:29:02;4.80;99.90
76172;DHT22;64929;51.178;4.138;2024-01-15T09:31:28;4.80;99.90
76172;DHT22;64929;51.178;4.138;2024-01-15T09:33:54;4.70;99.90
76172;DHT22;64929;51.178;4.138;2024-01-15T09:36:24;4.80;99.90
76172;DHT22;64929;51.178;4.138;2024-01-15T09:38:51;4.90;99.90
76172;DHT22;64929;51.178;4.138;2024-01-15T09:41:17;5.00;99.90
76172;DHT22;64929;51.178;4.138;2024-01-15T09:43:43;4.80;99.90
76172;DHT22;64929;51.178;4.138;2024-01-15T09:46:10;4.60;99.90
76172;DHT22;64929;51.178;4.138;2024-01-15T09:48:36;4.60;99.90
76172;DHT22;64929;51.178;4.138;2024-01-15T09:51:05;4.70;99.90
76172;DHT22;64929;51.178;4.138;2024-01-15T09:53:31;4.90;99.90
76172;DHT22;64929;51.178;4.138;2024-01-15T09:55:59;4.80;99.90
76172;DHT22;64929;51.178;4.138;2024-01-15T09:58:25;4.70;99.90
76172;DHT22;64929;51.178;4.138;2024-01-15T10:00:52;4.60;99.90
76172;DHT22;64929;51.178;4.138;2024-01-15T10:03:18;4.70;99.90
76172;DHT22;64929;51.178;4.138;2024-01-15T10:05:44;5.00;99.90
76172;DHT22;64929;51.178;4.138;2024-01-15T10:08:09;5.00;99.90
76172;DHT22;64929;51.178;4.138;2024-01-15T10:10:36;4.90;99.90
76172;DHT22;64929;51.178;4.138;2024-01-15T10:13:04;5.00;99.90
76172;DHT22;64929;51.178;4.138;2024-01-15T10:15:34;5.00;99.90
76172;DHT22;64929;51.178;4.138;2024-01-15T10:18:00;5.00;99.90
76172;DHT22;64929;51.178;4.138;2024-01-15T10:20:26;5.10;99.90
76172;DHT22;64929;51.178;4.138;2024-01-15T10:22:51;5.00;99.90
76172;DHT22;64929;51.178;4.138;2024-01-15T10:25:17;5.10;99.90
76172;DHT22;64929;51.178;4.138;2024-01-15T10:28:02;4.90;99.90
76172;DHT22;64929;51.178;4.138;2024-01-15T10:30:29;4.90;99.90
76172;DHT22;64929;51.178;4.138;2024-01-15T10:33:02;4.90;99.90
76172;DHT22;64929;51.178;4.138;2024-01-15T10:35:30;4.80;99.90
76172;DHT22;64929;51.178;4.138;2024-01-15T10:37:55;4.80;99.90
76172;DHT22;64929;51.178;4.138;2024-01-15T10:40:21;4.80;99.90
76172;DHT22;64929;51.178;4.138;2024-01-15T10:42:47;4.70;99.90
76172;DHT22;64929;51.178;4.138;2024-01-15T10:45:16;4.70;99.90
76172;DHT22;64929;51.178;4.138;2024-01-15T10:47:42;4.80;99.90
76172;DHT22;64929;51.178;4.138;2024-01-15T10:50:09;5.10;99.90
76172;DHT22;64929;51.178;4.138;2024-01-15T10:52:36;4.90;99.90
76172;DHT22;64929;51.178;4.138;2024-01-15T10:55:03;4.90;99.90
76172;DHT22;64929;51.178;4.138;2024-01-15T10:57:32;5.10;99.90
76172;DHT22;64929;51.178;4.138;2024-01-15T10:59:58;5.10;99.90
76172;DHT22;64929;51.178;4.138;2024-01-15T11:02:25;5.00;99.90
76172;DHT22;64929;51.178;4.138;2024-01-15T11:04:51;5.10;99.90
76172;DHT22;64929;51.178;4.138;2024-01-15T11:07:17;5.00;99.90
76172;DHT22;64929;51.178;4.138;2024-01-15T11:09:46;4.90;99.90
76172;DHT22;64929;51.178;4.138;2024-01-15T11:12:16;5.00;99.90
76172;DHT22;64929;51.178;4.138;2024-01-15T11:14:46;5.00;99.90
76172;DHT22;64929;51.178;4.138;2024-01-15T11:17:13;4.90;99.90
76172;DHT22;64929;51.178;4.138;2024-01-15T11:19:47;4.80;99.90
76172;DHT22;64929;51.178;4.138;2024-01-15T11:22:48;4.80;99.90
76172;DHT22;64929;51.178;4.138;2024-01-15T11:25:18;4.90;99.90
76172;DHT22;64929;51.178;4.138;2024-01-15T11:27:45;5.00;99.90
76172;DHT22;64929;51.178;4.138;2024-01-15T11:30:18;4.90;99.90
76172;DHT22;64929;51.178;4.138;2024-01-15T11:32:45;5.10;99.90
76172;DHT22;64929;51.178;4.138;2024-01-15T11:35:13;5.10;99.90
76172;DHT22;64929;51.178;4.138;2024-01-15T11:40:19;5.00;99.90
76172;DHT22;64929;51.178;4.138;2024-01-15T11:42:45;5.20;99.90
76172;DHT22;64929;51.178;4.138;2024-01-15T11:45:11;5.60;99.90
76172;DHT22;64929;51.178;4.138;2024-01-15T11:50:45;5.90;99.90
76172;DHT22;64929;51.178;4.138;2024-01-15T11:53:37;5.70;99.90
76172;DHT22;64929;51.178;4.138;2024-01-15T11:56:16;5.70;99.90
76172;DHT22;64929;51.178;4.138;2024-01-15T11:58:44;5.70;99.90
76172;DHT22;64929;51.178;4.138;2024-01-15T12:01:13;5.80;99.90
76172;DHT22;64929;51.178;4.138;2024-01-15T12:03:39;5.50;99.90
76172;DHT22;64929;51.178;4.138;2024-01-15T12:06:09;5.60;99.90
76172;DHT22;64929;51.178;4.138;2024-01-15T12:08:35;5.60;99.90
76172;DHT22;64929;51.178;4.138;2024-01-15T12:11:11;5.50;99.90
76172;DHT22;64929;51.178;4.138;2024-01-15T12:13:39;5.40;99.90
76172;DHT22;64929;51.178;4.138;2024-01-15T12:16:05;5.10;99.90
76172;DHT22;64929;51.178;4.138;2024-01-15T12:18:30;4.80;99.90
76172;DHT22;64929;51.178;4.138;2024-01-15T12:20:57;4.60;99.90
76172;DHT22;64929;51.178;4.138;2024-01-15T12:23:24;4.40;99.90
76172;DHT22;64929;51.178;4.138;2024-01-15T12:25:50;4.60;99.90
76172;DHT22;64929;51.178;4.138;2024-01-15T12:28:16;4.70;99.90
76172;DHT22;64929;51.178;4.138;2024-01-15T12:30:42;4.80;99.90
76172;DHT22;64929;51.178;4.138;2024-01-15T12:33:08;4.80;99.90
76172;DHT22;64929;51.178;4.138;2024-01-15T12:35:34;4.60;99.90
76172;DHT22;64929;51.178;4.138;2024-01-15T12:38:01;4.40;99.90
76172;DHT22;64929;51.178;4.138;2024-01-15T12:40:30;4.50;99.90
76172;DHT22;64929;51.178;4.138;2024-01-15T12:42:56;4.30;99.90
76172;DHT22;64929;51.178;4.138;2024-01-15T12:45:22;4.30;99.90
76172;DHT22;64929;51.178;4.138;2024-01-15T12:47:48;4.10;99.90
76172;DHT22;64929;51.178;4.138;2024-01-15T12:50:14;4.20;99.90
76172;DHT22;64929;51.178;4.138;2024-01-15T12:52:42;4.20;99.90
76172;DHT22;64929;51.178;4.138;2024-01-15T12:55:10;4.40;99.90
76172;DHT22;64929;51.178;4.138;2024-01-15T12:57:36;4.50;99.90
76172;DHT22;64929;51.178;4.138;2024-01-15T13:00:03;4.60;99.90
76172;DHT22;64929;51.178;4.138;2024-01-15T13:02:36;4.70;99.90
76172;DHT22;64929;51.178;4.138;2024-01-15T13:05:03;4.80;99.90
76172;DHT22;64929;51.178;4.138;2024-01-15T13:07:29;4.80;99.90
76172;DHT22;64929;51.178;4.138;2024-01-15T13:09:55;4.70;99.90
76172;DHT22;64929;51.178;4.138;2024-01-15T13:12:21;4.50;99.90
76172;DHT22;64929;51.178;4.138;2024-01-15T13:14:47;4.10;99.90
76172;DHT22;64929;51.178;4.138;2024-01-15T13:17:14;4.10;99.90
76172;DHT22;64929;51.178;4.138;2024-01-15T13:19:42;4.00;99.90
76172;DHT22;64929;51.178;4.138;2024-01-15T13:22:08;3.70;99.90
76172;DHT22;64929;51.178;4.138;2024-01-15T13:24:37;3.70;99.90
76172;DHT22;64929;51.178;4.138;2024-01-15T13:27:03;3.60;99.90
76172;DHT22;64929;51.178;4.138;2024-01-15T13:29:30;3.70;99.90
76172;DHT22;64929;51.178;4.138;2024-01-15T13:31:56;4.10;99.90
76172;DHT22;64929;51.178;4.138;2024-01-15T13:34:21;4.20;99.90
76172;DHT22;64929;51.178;4.138;2024-01-15T13:36:47;4.40;99.90
76172;DHT22;64929;51.178;4.138;2024-01-15T13:39:13;4.60;99.90
76172;DHT22;64929;51.178;4.138;2024-01-15T13:41:39;5.00;99.90
76172;DHT22;64929;51.178;4.138;2024-01-15T13:44:04;5.20;99.90
76172;DHT22;64929;51.178;4.138;2024-01-15T13:46:30;4.90;99.90
76172;DHT22;64929;51.178;4.138;2024-01-15T13:48:56;4.50;99.90
76172;DHT22;64929;51.178;4.138;2024-01-15T13:51:22;4.00;99.90
76172;DHT22;64929;51.178;4.138;2024-01-15T13:53:49;3.80;99.90
76172;DHT22;64929;51.178;4.138;2024-01-15T13:56:15;3.80;99.90
76172;DHT22;64929;51.178;4.138;2024-01-15T13:58:40;3.50;99.90
76172;DHT22;64929;51.178;4.138;2024-01-15T14:01:06;3.50;99.90
76172;DHT22;64929;51.178;4.138;2024-01-15T14:03:35;3.50;99.90
76172;DHT22;64929;51.178;4.138;2024-01-15T14:06:00;3.60;99.90
76172;DHT22;64929;51.178;4.138;2024-01-15T14:08:28;3.50;99.90
76172;DHT22;64929;51.178;4.138;2024-01-15T14:10:54;3.50;99.90
76172;DHT22;64929;51.178;4.138;2024-01-15T14:13:22;3.70;99.90
76172;DHT22;64929;51.178;4.138;2024-01-15T14:15:48;4.00;99.90
76172;DHT22;64929;51.178;4.138;2024-01-15T14:18:16;4.20;99.90
76172;DHT22;64929;51.178;4.138;2024-01-15T14:20:41;4.20;99.90
76172;DHT22;64929;51.178;4.138;2024-01-15T14:23:08;4.40;99.90
76172;DHT22;64929;51.178;4.138;2024-01-15T14:25:33;4.20;99.90
76172;DHT22;64929;51.178;4.138;2024-01-15T14:28:00;4.40;99.90
76172;DHT22;64929;51.178;4.138;2024-01-15T14:30:25;4.30;99.90
76172;DHT22;64929;51.178;4.138;2024-01-15T14:32:51;4.30;99.90
76172;DHT22;64929;51.178;4.138;2024-01-15T14:35:17;4.20;99.90
76172;DHT22;64929;51.178;4.138;2024-01-15T14:37:42;4.30;99.90
76172;DHT22;64929;51.178;4.138;2024-01-15T14:40:08;4.40;99.90
76172;DHT22;64929;51.178;4.138;2024-01-15T14:42:36;4.50;99.90
76172;DHT22;64929;51.178;4.138;2024-01-15T14:45:05;4.60;99.90
76172;DHT22;64929;51.178;4.138;2024-01-15T14:47:39;4.50;99.90
76172;DHT22;64929;51.178;4.138;2024-01-15T14:50:07;4.50;99.90
76172;DHT22;64929;51.178;4.138;2024-01-15T14:52:32;4.40;99.90
76172;DHT22;64929;51.178;4.138;2024-01-15T14:54:59;4.50;99.90
76172;DHT22;64929;51.178;4.138;2024-01-15T14:57:25;4.50;99.90
76172;DHT22;64929;51.178;4.138;2024-01-15T14:59:51;4.50;99.90
76172;DHT22;64929;51.178;4.138;2024-01-15T15:02:16;4.50;99.90
76172;DHT22;64929;51.178;4.138;2024-01-15T15:04:43;4.60;99.90
76172;DHT22;64929;51.178;4.138;2024-01-15T15:07:09;4.40;99.90
76172;DHT22;64929;51.178;4.138;2024-01-15T15:09:36;4.60;99.90
76172;DHT22;64929;51.178;4.138;2024-01-15T15:12:03;4.40;99.90
76172;DHT22;64929;51.178;4.138;2024-01-15T15:14:30;4.50;99.90
76172;DHT22;64929;51.178;4.138;2024-01-15T15:16:57;4.50;99.90
76172;DHT22;64929;51.178;4.138;2024-01-15T15:19:23;4.40;99.90
76172;DHT22;64929;51.178;4.138;2024-01-15T15:21:48;4.50;99.90
76172;DHT22;64929;51.178;4.138;2024-01-15T15:24:14;4.40;99.90
76172;DHT22;64929;51.178;4.138;2024-01-15T15:26:40;4.40;99.90
76172;DHT22;64929;51.178;4.138;2024-01-15T15:29:06;4.50;99.90
76172;DHT22;64929;51.178;4.138;2024-01-15T15:31:31;4.30;99.90
76172;DHT22;64929;51.178;4.138;2024-01-15T15:33:57;4.50;99.90
76172;DHT22;64929;51.178;4.138;2024-01-15T15:36:23;4.50;99.90
76172;DHT22;64929;51.178;4.138;2024-01-15T15:38:49;4.40;99.90
76172;DHT22;64929;51.178;4.138;2024-01-15T15:41:14;4.40;99.90
76172;DHT22;64929;51.178;4.138;2024-01-15T15:43:40;4.20;99.90
76172;DHT22;64929;51.178;4.138;2024-01-15T15:46:06;4.10;99.90